Sacramento, CA

3:22 PM PDT on July 06, 2015 (GMT -0700)
APRSWXNET | | Change Station
CLOSE
Current Station
Personal Weather Station
Location: Sacramento, CA
Elevation: 18 ft
Nearby Weather Stations

Elev 18 ft 38.57 °N, 121.48 °W | Updated 24 minutes ago

Clear
Clear
91 °F
Feels Like 91 °F
N
0
Wind Variable Wind from ESE
Gusts 0.0 mph

Today
High -- | Low -- °F
--% Chance of Precip.
Yesterday
High -- | Low -- °F
Precip. -- in
5:47 AM 8:33 PM
Waning Gibbous, 71% visible
Pressure 29.96 in
Visibility 10.0 miles
Clouds Clear
Heat Index 91 °F
Dew Point 61 °F
Humidity 37%
Rainfall in
Snow Depth Not available.
UV 10 out of 12
Pollen 5.30 out of 12
Air Quality Not available.
Flu Activity Not available.
METAR KSAC 062153Z VRB05KT 10SM CLR 31/13 A2995 RMK AO2 SLP143 T03060133

More Conditions Fewer Conditions

Pressure 29.96 in
Visibility 10.0 miles
Clouds Clear
Heat Index 91 °F
Dew Point 61 °F
Humidity 37%
Rainfall in
Snow Depth Not available.
UV 10 out of 12
Pollen 5.30 out of 12
Air Quality Not available.
Flu Activity Not available.
METAR KSAC 062153Z VRB05KT 10SM CLR 31/13 A2995 RMK AO2 SLP143 T03060133

More Conditions Fewer Conditions

10-Day Weather Forecast

×

Almanac

Astronomy

Jul. 06, 2015 Rise Set
Actual Time
Civil Twilight
Nautical Twilight
Astronomical Twilight
Moon
Length of Visible Light
Length of Day
Tomorrow will be .
, % of the Moon is Illuminated

Today's Extremes

State Highs State Lows

Community

WunderPhotos

Upload Photos

1,835,664 photos uploaded!

WunderBlogs® & News

Nearby

Air Quality

  Air Quality AQ Index Pollutant
Not available.

Snow Depth

Station Depth Elevation

Earthquake Activity

City Distance Mag. Time & Date
Minimum magnitude displayed is 2.5.

Coastal Water Temperatures

Place Temperature

Stations

Nearby Weather Stations

Station Location Temp. Windchill Dew Point Humidity Wind Precip. Elev Updated Type